Time;durP1;ratioP1;P1;durP2;ratioP2;P2;SDS_P1;SDS_P2;PMS_P1;PMS_P2;Temp;Humidity;BMP_temperature;BMP_pressure;BME280_temperature;BME280_humidity;BME280_pressure;Samples;Min_cycle;Max_cycle;Signal;HPM_P1;HPM_P2
2022/01/04 00:00:34;;;;;;;;;;;;;;;10.84;71.57;98405.16;5071354;28;19929;-61
2022/01/04 00:03:00;;;;;;;;;;;;;;;10.84;72.16;98400.72;5071420;28;20342;-61
2022/01/04 00:05:27;;;;;;;;;;;;;;;10.84;71.66;98392.00;5069967;28;19972;-61
2022/01/04 00:07:54;;;;;;;;;;;;;;;10.84;72.18;98392.81;5071490;28;19929;-61
2022/01/04 00:10:23;;;;;;;;;;;;;;;10.85;72.57;98385.78;5071046;28;20323;-61
2022/01/04 00:15:35;;;;;;;;;;;;;;;10.87;72.06;98370.72;5071163;28;19932;-62
2022/01/04 00:18:02;;;;;;;;;;;;;;;10.87;71.40;98360.19;5069607;28;19936;-62
2022/01/04 00:20:28;;;;;;;;;;;;;;;10.87;71.71;98354.91;5070929;28;19924;-62
2022/01/04 00:22:55;;;;;;;;;;;;;;;10.88;72.30;98341.59;5071167;28;19924;-61
2022/01/04 00:25:21;;;;;;;;;;;;;;;10.88;71.65;98338.16;5070323;28;19950;-61
2022/01/04 00:27:48;;;;;;;;;;;;;;;10.89;71.75;98338.03;5069702;28;19932;-61
2022/01/04 00:30:14;;;;;;;;;;;;;;;10.89;71.63;98340.66;5070696;28;20351;-61
2022/01/04 00:32:41;;;;;;;;;;;;;;;10.90;71.89;98333.59;5070637;28;20042;-61
2022/01/04 00:35:08;;;;;;;;;;;;;;;10.90;71.94;98339.69;5071129;28;19978;-60
2022/01/04 00:37:34;;;;;;;;;;;;;;;10.92;72.18;98324.59;5070996;28;19928;-60
2022/01/04 00:40:06;;;;;;;;;;;;;;;10.93;72.11;98320.19;5070815;28;19971;-60
2022/01/04 00:42:32;;;;;;;;;;;;;;;10.92;71.53;98316.69;5069662;28;19925;-60
2022/01/04 00:44:58;;;;;;;;;;;;;;;10.94;72.09;98316.59;5070700;28;20375;-62
2022/01/04 00:47:38;;;;;;;;;;;;;;;10.94;72.02;98313.94;5070677;28;19931;-60
2022/01/04 00:50:05;;;;;;;;;;;;;;;10.95;72.22;98310.34;5070472;28;19928;-63
2022/01/04 00:52:32;;;;;;;;;;;;;;;10.97;72.24;98318.13;5070658;28;19994;-60
2022/01/04 00:54:58;;;;;;;;;;;;;;;10.97;71.96;98300.53;5070657;28;19986;-61
2022/01/04 00:57:24;;;;;;;;;;;;;;;10.99;71.83;98303.06;5070367;28;20004;-62
2022/01/04 00:59:51;;;;;;;;;;;;;;;10.99;72.40;98290.72;5070274;28;20376;-60
2022/01/04 01:02:17;;;;;;;;;;;;;;;11.00;72.26;98287.13;5070445;28;20372;-62
2022/01/04 01:04:44;;;;;;;;;;;;;;;11.02;72.32;98286.97;5070614;28;19946;-61
2022/01/04 01:07:10;;;;;;;;;;;;;;;11.01;72.25;98280.91;5070447;28;19934;-61
2022/01/04 01:09:47;;;;;;;;;;;;;;;11.01;72.49;98280.91;5070187;28;20444;-61
2022/01/04 01:12:13;;;;;;;;;;;;;;;11.00;72.27;98276.59;5070368;28;19925;-63
2022/01/04 01:14:40;;;;;;;;;;;;;;;11.01;72.33;98277.41;5070317;28;19950;-62
2022/01/04 01:17:06;;;;;;;;;;;;;;;11.00;72.35;98249.44;5070672;28;20342;-61
2022/01/04 01:19:33;;;;;;;;;;;;;;;10.98;72.45;98252.19;5070249;28;19931;-61
2022/01/04 01:22:00;;;;;;;;;;;;;;;11.00;72.65;98246.78;5070491;28;19925;-61
2022/01/04 01:24:27;;;;;;;;;;;;;;;11.00;72.47;98238.91;5070315;28;19929;-60
2022/01/04 01:26:53;;;;;;;;;;;;;;;10.99;72.04;98239.88;5070399;28;20339;-60
2022/01/04 01:29:19;;;;;;;;;;;;;;;10.97;71.85;98233.88;5070362;28;19986;-59
2022/01/04 01:31:46;;;;;;;;;;;;;;;10.97;72.34;98237.34;5070517;28;19958;-61
2022/01/04 01:34:12;;;;;;;;;;;;;;;10.96;72.35;98238.31;5070468;28;19924;-61
2022/01/04 01:36:39;;;;;;;;;;;;;;;10.95;72.32;98234.84;5073292;28;19924;-60
2022/01/04 01:39:05;;;;;;;;;;;;;;;10.95;72.34;98234.00;5074085;28;19924;-63
2022/01/04 01:41:32;;;;;;;;;;;;;;;10.94;72.44;98234.97;5074046;28;20678;-62
2022/01/04 01:43:58;;;;;;;;;;;;;;;10.95;72.66;98228.72;5072905;28;19924;-61
2022/01/04 01:46:25;;;;;;;;;;;;;;;10.95;72.76;98224.31;5072827;28;19924;-62
2022/01/04 01:48:51;;;;;;;;;;;;;;;10.95;72.63;98231.38;5073933;28;19978;-61
2022/01/04 01:51:18;;;;;;;;;;;;;;;10.97;72.72;98229.47;5073734;28;19928;-61
2022/01/04 01:53:45;;;;;;;;;;;;;;;10.97;72.75;98221.56;5073908;28;20398;-60
2022/01/04 01:56:11;;;;;;;;;;;;;;;10.97;73.00;98221.56;5073734;28;19929;-61
2022/01/04 01:58:38;;;;;;;;;;;;;;;11.00;73.07;98223.09;5073653;28;20385;-62
2022/01/04 02:01:04;;;;;;;;;;;;;;;10.99;72.66;98219.63;5072114;28;20292;-61
2022/01/04 02:03:31;;;;;;;;;;;;;;;10.99;72.87;98224.88;5072450;28;19974;-61
2022/01/04 02:05:57;;;;;;;;;;;;;;;10.99;72.93;98214.34;5073639;28;19986;-61
2022/01/04 02:08:24;;;;;;;;;;;;;;;11.00;73.10;98210.78;5073567;28;19928;-62
2022/01/04 02:10:51;;;;;;;;;;;;;;;11.00;72.75;98194.13;5073235;28;19924;-60
2022/01/04 02:13:17;;;;;;;;;;;;;;;11.00;72.54;98197.63;5073876;28;19978;-61
2022/01/04 02:15:44;;;;;;;;;;;;;;;10.99;72.32;98192.47;5073593;28;19929;-62
2022/01/04 02:18:10;;;;;;;;;;;;;;;10.98;72.41;98196.91;5072249;28;19970;-60
2022/01/04 02:20:36;;;;;;;;;;;;;;;10.97;72.00;98182.06;5073355;28;20516;-60
2022/01/04 02:23:03;;;;;;;;;;;;;;;10.94;72.37;98182.31;5073243;28;19978;-62
2022/01/04 02:25:29;;;;;;;;;;;;;;;10.92;71.98;98174.53;5073359;28;19929;-61
2022/01/04 02:27:56;;;;;;;;;;;;;;;10.91;71.87;98164.97;5072069;28;19924;-61
2022/01/04 02:30:22;;;;;;;;;;;;;;;10.91;72.62;98162.34;5073050;28;19925;-60
2022/01/04 02:32:49;;;;;;;;;;;;;;;10.90;71.76;98159.84;5073334;28;19975;-62
2022/01/04 02:35:17;;;;;;;;;;;;;;;10.90;72.46;98157.22;5073079;28;19933;-60
2022/01/04 02:37:44;;;;;;;;;;;;;;;10.90;72.39;98152.78;5073061;28;19928;-61
2022/01/04 02:40:11;;;;;;;;;;;;;;;10.89;72.25;98145.03;5073005;28;20422;-62
2022/01/04 02:42:37;;;;;;;;;;;;;;;10.90;72.42;98142.25;5072997;28;19924;-61
2022/01/04 02:45:05;;;;;;;;;;;;;;;10.89;72.11;98137.97;5072953;28;19970;-61
2022/01/04 02:47:32;;;;;;;;;;;;;;;10.90;72.67;98133.53;5071979;28;19931;-61
2022/01/04 02:49:59;;;;;;;;;;;;;;;10.88;72.13;98128.38;5072581;28;19971;-61
2022/01/04 02:52:27;;;;;;;;;;;;;;;10.89;72.59;98131.84;5072926;28;20364;-61
2022/01/04 02:54:53;;;;;;;;;;;;;;;10.85;71.55;98123.41;5072812;28;19924;-61
2022/01/04 02:57:19;;;;;;;;;;;;;;;10.85;72.31;98123.41;5072526;28;19970;-62
2022/01/04 02:59:46;;;;;;;;;;;;;;;10.86;72.36;98121.59;5072499;28;19929;-61
2022/01/04 03:02:12;;;;;;;;;;;;;;;10.82;72.15;98119.22;5072628;28;19924;-60
2022/01/04 03:04:39;;;;;;;;;;;;;;;10.81;72.08;98125.44;5072586;28;19939;-60
2022/01/04 03:07:06;;;;;;;;;;;;;;;10.81;72.62;98122.00;5072330;28;19978;-62
2022/01/04 03:09:32;;;;;;;;;;;;;;;10.80;72.19;98112.41;5072371;28;20296;-62
2022/01/04 03:11:59;;;;;;;;;;;;;;;10.80;72.36;98115.03;5072400;28;19924;-60
2022/01/04 03:14:26;;;;;;;;;;;;;;;10.79;72.38;98113.38;5072466;28;19925;-60
2022/01/04 03:16:52;;;;;;;;;;;;;;;10.78;72.16;98112.56;5072227;28;19929;-62
2022/01/04 03:19:19;;;;;;;;;;;;;;;10.77;72.46;98110.06;5072080;28;19924;-61
2022/01/04 03:21:45;;;;;;;;;;;;;;;10.76;72.56;98105.75;5072386;28;19924;-60
2022/01/04 03:24:12;;;;;;;;;;;;;;;10.74;71.59;98095.34;5072471;28;19946;-61
2022/01/04 03:26:39;;;;;;;;;;;;;;;10.73;71.47;98096.28;5072092;28;19932;-61
2022/01/04 03:29:07;;;;;;;;;;;;;;;10.72;71.90;98097.25;5070992;28;19924;-61
2022/01/04 03:31:34;;;;;;;;;;;;;;;10.71;72.18;98089.50;5071815;28;20273;-61
2022/01/04 03:34:01;;;;;;;;;;;;;;;10.70;72.23;98080.78;5070620;28;19979;-61
2022/01/04 03:36:27;;;;;;;;;;;;;;;10.68;72.22;98086.19;5072008;28;19977;-61
2022/01/04 03:38:55;;;;;;;;;;;;;;;10.66;71.26;98069.66;5072107;28;19929;-62
2022/01/04 03:41:22;;;;;;;;;;;;;;;10.63;71.00;98069.94;5071702;28;20323;-61
2022/01/04 03:43:49;;;;;;;;;;;;;;;10.63;71.83;98069.09;5070506;28;19929;-63
2022/01/04 03:46:16;;;;;;;;;;;;;;;10.60;71.37;98066.72;5071669;28;19925;-61
2022/01/04 03:48:42;;;;;;;;;;;;;;;10.60;71.67;98064.09;5071955;28;19924;-60
2022/01/04 03:51:09;;;;;;;;;;;;;;;10.60;71.75;98053.56;5071647;28;19928;-62
2022/01/04 03:53:36;;;;;;;;;;;;;;;10.57;71.47;98043.31;5071644;28;19972;-61
2022/01/04 03:56:03;;;;;;;;;;;;;;;10.58;72.28;98037.09;5070357;28;19924;-61
2022/01/04 03:58:29;;;;;;;;;;;;;;;10.57;72.16;98033.63;5069558;28;19986;-62
2022/01/04 04:00:56;;;;;;;;;;;;;;;10.57;72.28;98032.81;5070880;28;19976;-61
2022/01/04 04:03:23;;;;;;;;;;;;;;;10.55;71.94;98019.78;5071387;28;19925;-61
2022/01/04 04:05:49;;;;;;;;;;;;;;;10.57;72.51;98014.38;5071450;28;19925;-61
2022/01/04 04:08:16;;;;;;;;;;;;;;;10.55;72.18;98002.16;5070138;28;19958;-61
2022/01/04 04:10:43;;;;;;;;;;;;;;;10.55;72.64;98011.88;5069816;28;20376;-62
2022/01/04 04:13:09;;;;;;;;;;;;;;;10.54;72.56;98003.16;5071295;28;19924;-61
2022/01/04 04:15:38;;;;;;;;;;;;;;;10.54;72.24;97992.63;5071010;28;20396;-62
2022/01/04 04:18:04;;;;;;;;;;;;;;;10.53;72.33;97983.06;5071007;28;19928;-60
2022/01/04 04:20:31;;;;;;;;;;;;;;;10.52;72.38;97980.56;5071117;28;19928;-61
2022/01/04 04:22:57;;;;;;;;;;;;;;;10.52;72.25;97981.41;5069896;28;19997;-60
2022/01/04 04:25:24;;;;;;;;;;;;;;;10.51;72.08;97968.38;5070915;28;20359;-62
2022/01/04 04:27:50;;;;;;;;;;;;;;;10.50;72.41;97975.44;5069731;28;19924;-62
2022/01/04 04:30:17;;;;;;;;;;;;;;;10.50;72.48;97967.53;5070855;28;20290;-62
2022/01/04 04:32:43;;;;;;;;;;;;;;;10.50;72.47;97961.47;5071306;28;20418;-60
2022/01/04 04:35:10;;;;;;;;;;;;;;;10.49;71.95;97946.63;5070012;28;19951;-61
2022/01/04 04:37:36;;;;;;;;;;;;;;;10.49;72.57;97936.94;5071208;28;19929;-61
2022/01/04 04:40:03;;;;;;;;;;;;;;;10.49;72.71;97944.84;5070803;28;20352;-62
2022/01/04 04:42:29;;;;;;;;;;;;;;;10.49;72.75;97938.72;5070808;28;19925;-60
2022/01/04 04:44:58;;;;;;;;;;;;;;;10.48;72.51;97937.06;5070962;28;19932;-62
2022/01/04 04:47:25;;;;;;;;;;;;;;;10.46;71.92;97934.56;5069658;28;20026;-60
2022/01/04 04:49:52;;;;;;;;;;;;;;;10.45;72.52;97935.53;5070664;28;19925;-61
2022/01/04 04:52:19;;;;;;;;;;;;;;;10.46;72.43;97931.13;5070838;28;19925;-60
2022/01/04 04:54:46;;;;;;;;;;;;;;;10.45;72.82;97935.53;5070701;28;19928;-60
2022/01/04 04:57:12;;;;;;;;;;;;;;;10.45;72.84;97939.97;5070448;28;19978;-60
2022/01/04 04:59:39;;;;;;;;;;;;;;;10.46;72.78;97923.22;5070585;28;19928;-61
2022/01/04 05:02:07;;;;;;;;;;;;;;;10.46;73.10;97931.94;5071110;28;19928;-61
2022/01/04 05:04:34;;;;;;;;;;;;;;;10.46;72.70;97929.31;5070642;28;20288;-60
2022/01/04 05:07:01;;;;;;;;;;;;;;;10.46;72.51;97928.50;5070519;28;19925;-62
2022/01/04 05:09:27;;;;;;;;;;;;;;;10.45;72.02;97925.03;5070111;28;20365;-61
2022/01/04 05:11:54;;;;;;;;;;;;;;;10.46;72.67;97925.88;5069988;28;19928;-61
2022/01/04 05:14:20;;;;;;;;;;;;;;;10.45;72.82;97919.75;5070887;28;20363;-62
2022/01/04 05:16:47;;;;;;;;;;;;;;;10.45;72.47;97921.53;5070285;28;20430;-61
2022/01/04 05:19:14;;;;;;;;;;;;;;;10.43;72.63;97919.00;5068917;28;19928;-61
2022/01/04 05:21:41;;;;;;;;;;;;;;;10.44;72.59;97915.47;5069400;28;19924;-62
2022/01/04 05:24:07;;;;;;;;;;;;;;;10.43;72.61;97903.22;5070751;28;20343;-60
2022/01/04 05:26:34;;;;;;;;;;;;;;;10.43;72.71;97908.50;5069471;28;19947;-61
2022/01/04 05:29:01;;;;;;;;;;;;;;;10.41;72.07;97902.53;5070474;28;20377;-61
2022/01/04 05:31:29;;;;;;;;;;;;;;;10.40;72.27;97903.50;5070401;28;19924;-61
2022/01/04 05:33:55;;;;;;;;;;;;;;;10.39;72.16;97900.03;5070372;28;19967;-64
2022/01/04 05:36:22;;;;;;;;;;;;;;;10.38;71.92;97905.44;5070381;28;20388;-60
2022/01/04 05:38:48;;;;;;;;;;;;;;;10.36;72.18;97902.94;5070317;28;20330;-61
2022/01/04 05:41:15;;;;;;;;;;;;;;;10.34;71.85;97898.75;5069021;28;20366;-61
2022/01/04 05:43:41;;;;;;;;;;;;;;;10.34;72.50;97896.97;5070257;28;19928;-62
2022/01/04 05:46:08;;;;;;;;;;;;;;;10.33;72.35;97907.63;5070340;28;19925;-60
2022/01/04 05:48:34;;;;;;;;;;;;;;;10.33;72.45;97899.75;5069174;28;20372;-61
2022/01/04 05:51:01;;;;;;;;;;;;;;;10.33;72.29;97890.06;5069997;28;19935;-62
2022/01/04 05:53:31;;;;;;;;;;;;;;;10.33;72.28;97900.59;5068893;28;19931;-60
2022/01/04 05:55:57;;;;;;;;;;;;;;;10.32;72.24;97901.53;5070398;28;19928;-61
2022/01/04 05:58:24;;;;;;;;;;;;;;;10.32;72.42;97900.72;5070289;28;19924;-61
2022/01/04 06:00:50;;;;;;;;;;;;;;;10.29;72.12;97881.59;5070107;28;19970;-61
2022/01/04 06:03:17;;;;;;;;;;;;;;;10.29;72.24;97876.31;5070189;28;20393;-62
2022/01/04 06:05:44;;;;;;;;;;;;;;;10.29;72.25;97862.38;5070093;28;20011;-61
2022/01/04 06:08:11;;;;;;;;;;;;;;;10.28;72.18;97866.78;5069937;28;19924;-60
2022/01/04 06:10:40;;;;;;;;;;;;;;;10.29;72.45;97854.47;5069840;28;19982;-61
2022/01/04 06:15:38;;;;;;;;;;;;;;;10.26;72.19;97865.25;5070239;28;19932;-60
2022/01/04 06:18:04;;;;;;;;;;;;;;;10.26;72.09;97867.88;5069779;28;19925;-61
2022/01/04 06:20:31;;;;;;;;;;;;;;;10.25;72.12;97863.59;5069623;28;19924;-60
2022/01/04 06:22:57;;;;;;;;;;;;;;;10.24;72.21;97844.34;5071742;28;19978;-60
2022/01/04 06:25:24;;;;;;;;;;;;;;;10.23;71.86;97834.78;5073716;28;19977;-61
2022/01/04 06:27:51;;;;;;;;;;;;;;;10.22;71.66;97838.41;5073622;28;19925;-62
2022/01/04 06:30:19;;;;;;;;;;;;;;;10.21;72.29;97826.19;5073354;28;19954;-61
2022/01/04 06:32:49;;;;;;;;;;;;;;;10.22;72.47;97827.88;5072155;28;20031;-61
2022/01/04 06:35:15;;;;;;;;;;;;;;;10.22;72.51;97827.88;5071943;28;19970;-61
2022/01/04 06:37:43;;;;;;;;;;;;;;;10.23;72.45;97826.91;5073403;28;19925;-61
2022/01/04 06:40:10;;;;;;;;;;;;;;;10.22;72.50;97832.28;5073110;28;19928;-60
2022/01/04 06:42:36;;;;;;;;;;;;;;;10.23;72.69;97829.53;5073148;28;19925;-60
2022/01/04 06:45:03;;;;;;;;;;;;;;;10.23;72.25;97834.78;5073251;28;19966;-62
2022/01/04 06:47:30;;;;;;;;;;;;;;;10.23;72.65;97832.16;5071884;28;19967;-61
2022/01/04 06:49:56;;;;;;;;;;;;;;;10.23;72.05;97849.72;5072649;28;19925;-60
2022/01/04 06:52:23;;;;;;;;;;;;;;;10.22;72.42;97851.53;5072842;28;19928;-62
2022/01/04 06:54:49;;;;;;;;;;;;;;;10.24;72.88;97852.22;5072984;28;19932;-62
2022/01/04 06:57:21;;;;;;;;;;;;;;;10.23;72.18;97849.72;5072784;28;19934;-61
2022/01/04 06:59:47;;;;;;;;;;;;;;;10.24;72.70;97843.53;5072435;28;20328;-61
2022/01/04 07:02:14;;;;;;;;;;;;;;;10.25;72.92;97847.81;5072625;28;19994;-60
2022/01/04 07:04:41;;;;;;;;;;;;;;;10.24;72.77;97852.22;5073075;28;19928;-61
2022/01/04 07:07:07;;;;;;;;;;;;;;;10.25;72.78;97843.38;5071398;28;19974;-62
2022/01/04 07:09:34;;;;;;;;;;;;;;;10.26;72.55;97836.31;5072254;28;19951;-61
2022/01/04 07:12:01;;;;;;;;;;;;;;;10.24;72.32;97831.19;5072374;28;20375;-62
2022/01/04 07:14:27;;;;;;;;;;;;;;;10.25;72.72;97830.22;5073187;28;19954;-63
2022/01/04 07:16:54;;;;;;;;;;;;;;;10.24;72.16;97828.56;5072292;28;19924;-62
2022/01/04 07:19:22;;;;;;;;;;;;;;;10.23;72.03;97826.91;5072761;28;19928;-60
2022/01/04 07:21:48;;;;;;;;;;;;;;;10.23;71.98;97832.16;5072562;28;19924;-61
2022/01/04 07:24:15;;;;;;;;;;;;;;;10.22;71.99;97816.53;5072244;28;20376;-61
2022/01/04 07:26:41;;;;;;;;;;;;;;;10.21;72.22;97815.69;5072442;28;19936;-63
2022/01/04 07:29:08;;;;;;;;;;;;;;;10.19;71.71;97817.63;5104617;28;19924;-61
2022/01/04 07:31:34;;;;;;;;;;;;;;;10.19;71.64;97806.25;5072383;28;19978;-60
2022/01/04 07:34:01;;;;;;;;;;;;;;;10.18;72.28;97800.19;5071920;28;19982;-61
2022/01/04 07:36:30;;;;;;;;;;;;;;;10.16;72.44;97794.22;5072216;28;19928;-61
2022/01/04 07:38:57;;;;;;;;;;;;;;;10.16;72.10;97795.06;5071863;28;20389;-61
2022/01/04 07:41:23;;;;;;;;;;;;;;;10.16;71.86;97799.47;5070385;28;19924;-61
2022/01/04 07:43:50;;;;;;;;;;;;;;;10.16;72.07;97789.81;5071492;28;19924;-61
2022/01/04 07:46:16;;;;;;;;;;;;;;;10.17;72.47;97790.66;5072206;28;19978;-62
2022/01/04 07:48:43;;;;;;;;;;;;;;;10.17;72.05;97790.66;5072038;28;19928;-62
2022/01/04 07:51:11;;;;;;;;;;;;;;;10.17;72.10;97788.00;5071728;28;19924;-61
2022/01/04 07:53:37;;;;;;;;;;;;;;;10.16;72.32;97781.91;5070130;28;19924;-61
2022/01/04 07:56:04;;;;;;;;;;;;;;;10.15;72.05;97776.78;5071955;28;19929;-61
2022/01/04 07:58:30;;;;;;;;;;;;;;;10.15;71.83;97763.63;5071479;28;19932;-61
2022/01/04 08:00:57;;;;;;;;;;;;;;;10.14;72.14;97756.72;5071743;28;19928;-61
2022/01/04 08:03:23;;;;;;;;;;;;;;;10.15;72.34;97755.75;5071807;28;19928;-60
2022/01/04 08:05:54;;;;;;;;;;;;;;;10.13;71.51;97752.44;5071758;28;19928;-61
2022/01/04 08:08:21;;;;;;;;;;;;;;;10.11;71.54;97757.84;5071096;28;19931;-61
2022/01/04 08:10:48;;;;;;;;;;;;;;;10.11;71.80;97772.75;5071228;28;20300;-61
2022/01/04 08:13:14;;;;;;;;;;;;;;;10.08;71.46;97752.84;5071351;28;19928;-61
2022/01/04 08:15:41;;;;;;;;;;;;;;;10.08;71.45;97765.13;5071505;28;19925;-62
2022/01/04 08:18:07;;;;;;;;;;;;;;;10.08;71.70;97765.13;5071040;28;20335;-61
2022/01/04 08:20:34;;;;;;;;;;;;;;;10.08;71.90;97762.50;5070849;28;20549;-61
2022/01/04 08:23:01;;;;;;;;;;;;;;;10.07;71.43;97768.72;5071191;28;19974;-61
2022/01/04 08:25:28;;;;;;;;;;;;;;;10.07;72.05;97755.59;5071254;28;19978;-60
2022/01/04 08:27:54;;;;;;;;;;;;;;;10.08;72.02;97752.00;5071533;28;19954;-60
2022/01/04 08:30:21;;;;;;;;;;;;;;;10.08;72.01;97757.25;5070744;28;19932;-61
2022/01/04 08:32:48;;;;;;;;;;;;;;;10.07;71.79;97760.84;5070980;28;19947;-61
2022/01/04 08:35:14;;;;;;;;;;;;;;;10.09;72.38;97754.50;5071046;28;20437;-62
2022/01/04 08:37:41;;;;;;;;;;;;;;;10.08;72.10;97747.56;5070937;28;20447;-62
2022/01/04 08:40:08;;;;;;;;;;;;;;;10.08;71.79;97752.00;5070661;28;19924;-60
2022/01/04 08:42:35;;;;;;;;;;;;;;;10.09;71.74;97751.03;5069711;28;19925;-61
2022/01/04 08:45:02;;;;;;;;;;;;;;;10.09;71.54;97743.97;5069300;28;19981;-62
2022/01/04 08:47:29;;;;;;;;;;;;;;;10.09;71.86;97743.97;5070904;28;19929;-61
2022/01/04 08:49:55;;;;;;;;;;;;;;;10.11;72.15;97754.34;5070499;28;19925;-62
2022/01/04 08:52:22;;;;;;;;;;;;;;;10.11;72.22;97756.97;5070758;28;20346;-61
2022/01/04 08:54:49;;;;;;;;;;;;;;;10.13;72.19;97757.69;5070777;28;19925;-61
2022/01/04 08:57:15;;;;;;;;;;;;;;;10.13;71.67;97776.09;5070827;28;19928;-61
2022/01/04 09:00:08;;;;;;;16.15;11.30;;;;;;;10.11;75.12;97770.97;5107638;27;20169;-63
2022/01/04 09:02:34;;;;;;;19.83;12.73;;;;;;;10.08;75.83;97763.34;5106769;28;20453;-61
2022/01/04 09:05:02;;;;;;;18.77;12.52;;;;;;;10.04;75.87;97762.78;5107862;28;20048;-61
2022/01/04 09:07:29;;;;;;;20.75;13.02;;;;;;;10.02;75.85;97759.44;5108166;28;20059;-61
2022/01/04 09:09:56;;;;;;;18.63;13.35;;;;;;;10.02;76.11;97769.16;5107462;28;20052;-63
2022/01/04 09:12:37;;;;;;;21.80;13.52;;;;;;;9.99;76.27;97754.44;5106632;28;20044;-61
2022/01/04 09:15:28;;;;;;;18.33;12.52;;;;;;;9.98;76.45;97758.06;5107801;28;20043;-62
2022/01/04 09:20:35;;;;;;;20.00;12.90;;;;;;;9.97;76.32;97750.28;5107828;28;20048;-63
2022/01/04 09:23:02;;;;;;;22.02;13.80;;;;;;;9.96;76.20;97753.91;5104418;28;20180;-61
2022/01/04 09:25:29;;;;;;;25.83;14.95;;;;;;;9.94;76.38;97740.88;5107370;28;20052;-63
2022/01/04 09:27:56;;;;;;;20.20;14.15;;;;;;;9.95;76.90;97742.56;5107007;28;20449;-62
2022/01/04 09:30:24;;;;;;;22.02;14.50;;;;;;;9.95;76.48;97745.19;5106937;28;20055;-63
2022/01/04 09:32:52;;;;;;;21.13;13.43;;;;;;;9.95;76.54;97758.34;5105617;28;20079;-63
2022/01/04 09:35:19;;;;;;;23.83;13.48;;;;;;;9.95;76.46;97757.50;5106059;28;20051;-62
2022/01/04 09:37:45;;;;;;;21.98;13.93;;;;;;;9.95;76.56;97768.84;5106875;28;20043;-62
2022/01/04 09:40:12;;;;;;;21.73;14.80;;;;;;;9.95;76.38;97768.00;5105120;28;20043;-61
2022/01/04 09:42:39;;;;;;;21.13;14.32;;;;;;;9.95;76.53;97774.09;5106765;28;20500;-63
2022/01/04 09:45:06;;;;;;;20.45;12.93;;;;;;;9.95;77.01;97782.00;5107114;28;20105;-62
2022/01/04 09:47:33;;;;;;;20.90;13.85;;;;;;;9.96;76.65;97783.66;5106680;28;20047;-63
2022/01/04 09:49:59;;;;;;;20.75;13.43;;;;;;;9.97;76.59;97780.06;5105196;28;20047;-62
2022/01/04 09:52:26;;;;;;;23.10;14.18;;;;;;;9.99;77.02;97778.09;5105713;28;20497;-62
2022/01/04 09:54:54;;;;;;;20.58;13.20;;;;;;;10.01;76.91;97770.94;5105890;28;20469;-62
2022/01/04 09:57:21;;;;;;;21.85;13.93;;;;;;;10.03;76.82;97774.25;5106740;28;20047;-62
2022/01/04 09:59:49;;;;;;;23.83;14.25;;;;;;;10.03;76.60;97769.00;5106968;28;20105;-62
2022/01/04 10:02:19;;;;;;;18.80;13.25;;;;;;;10.05;76.27;97763.59;5106896;28;20048;-62
2022/01/04 10:04:47;;;;;;;22.35;13.43;;;;;;;10.08;76.47;97765.13;5105645;28;20164;-61
2022/01/04 10:07:14;;;;;;;18.88;12.65;;;;;;;10.08;76.78;97762.50;5107083;28;20381;-62
2022/01/04 10:09:48;;;;;;;19.88;12.65;;;;;;;10.07;75.18;97755.59;5102356;28;20060;-61
2022/01/04 10:12:17;;;;;;;21.58;13.00;;;;;;;10.10;75.98;97760.59;5092938;28;20044;-62
2022/01/04 10:14:49;;;;;;;19.35;13.15;;;;;;;10.09;76.08;97754.50;5092102;28;20052;-64
2022/01/04 10:17:21;;;;;;;19.30;13.00;;;;;;;10.09;75.80;97753.69;5093202;28;20132;-61
2022/01/04 10:19:50;;;;;;;19.52;12.27;;;;;;;10.10;76.39;97753.50;5091504;28;20071;-61
2022/01/04 10:22:27;;;;;;;20.30;13.18;;;;;;;10.10;74.83;97758.78;5092991;28;20051;-63
2022/01/04 10:25:03;;;;;;;20.17;12.95;;;;;;;10.11;74.54;97751.72;5091862;28;20051;-61
2022/01/04 10:27:30;;;;;;;17.90;12.90;;;;;;;10.13;76.21;97748.00;5092907;28;20044;-62
2022/01/04 10:30:25;;;;;;;18.75;13.18;;;;;;;10.08;73.61;97733.59;5092742;28;20457;-62
2022/01/04 10:33:04;;;;;;;21.80;14.20;;;;;;;10.13;75.86;97728.78;5093311;28;20064;-63
2022/01/04 10:35:32;;;;;;;19.90;13.70;;;;;;;10.11;75.94;97721.03;5091772;28;20410;-61
2022/01/04 10:38:09;;;;;;;19.98;13.07;;;;;;;10.07;75.31;97719.63;5091531;28;20055;-63
2022/01/04 10:40:37;;;;;;;20.08;13.38;;;;;;;10.08;76.05;97705.50;5091147;28;20048;-63
2022/01/04 10:43:13;;;;;;;19.48;13.38;;;;;;;10.06;74.50;97707.47;5090846;28;20097;-61
2022/01/04 10:45:44;;;;;;;19.17;13.02;;;;;;;10.09;76.52;97704.53;5091377;28;20098;-63
2022/01/04 10:48:20;;;;;;;21.10;13.02;;;;;;;10.11;76.41;97694.75;5092641;28;20071;-61
2022/01/04 10:50:53;;;;;;;21.23;12.93;;;;;;;10.09;75.55;97699.28;5090967;28;20055;-62
2022/01/04 10:53:29;;;;;;;18.15;12.85;;;;;;;10.12;75.30;97696.38;5091050;28;20048;-61
2022/01/04 10:56:00;;;;;;;16.55;12.05;;;;;;;10.17;76.52;97709.13;5092617;28;20055;-61
2022/01/04 10:58:29;;;;;;;16.63;12.55;;;;;;;10.19;76.54;97707.19;5090822;28;20427;-62
2022/01/04 11:00:59;;;;;;;20.92;12.57;;;;;;;10.22;76.00;97701.66;5091646;28;20048;-61
2022/01/04 11:03:29;;;;;;;21.10;13.70;;;;;;;10.24;75.87;97689.19;5091052;28;20080;-61
2022/01/04 11:06:28;;;;;;;19.45;12.82;;;;;;;10.24;74.21;97699.72;5091904;28;20048;-61
2022/01/04 11:08:57;;;;;;;18.90;12.60;;;;;;;10.32;76.49;97692.97;5092158;28;20052;-62
2022/01/04 11:11:24;;;;;;;20.27;12.50;;;;;;;10.33;76.52;97687.56;5091760;28;20109;-62
2022/01/04 11:13:52;;;;;;;19.30;11.68;;;;;;;10.35;76.68;97688.25;5090534;28;20491;-62
2022/01/04 11:16:22;;;;;;;20.17;12.27;;;;;;;10.36;76.14;97692.53;5091477;28;20060;-61
2022/01/04 11:18:52;;;;;;;17.02;12.27;;;;;;;10.39;76.17;97691.44;5091617;28;20092;-64
2022/01/04 11:21:21;;;;;;;22.42;13.23;;;;;;;10.39;75.46;97687.00;5091056;28;20048;-63
2022/01/04 11:23:48;;;;;;;23.10;13.23;;;;;;;10.38;74.77;97692.41;5090284;28;20052;-64
2022/01/04 11:26:15;;;;;;;17.88;12.35;;;;;;;10.36;75.23;97689.09;5090377;28;20052;-64
2022/01/04 11:28:45;;;;;;;18.70;13.10;;;;;;;10.33;75.19;97699.88;5091584;28;20052;-64
2022/01/04 11:31:49;;;;;;;20.42;12.57;;;;;;;10.25;73.74;97685.59;5090392;28;20121;-64
2022/01/04 11:34:17;;;;;;;;;;;;;;;10.27;73.06;97678.41;5089442;28;20093;-67
2022/01/04 11:36:48;;;;;;;19.67;12.52;;;;;;;10.29;75.04;97684.34;5088761;28;19920;-63
2022/01/04 11:39:28;;;;;;;22.70;13.55;;;;;;;10.24;73.55;97664.72;5089420;28;20043;-63
2022/01/04 11:41:56;;;;;;;21.08;14.30;;;;;;;10.24;75.54;97673.44;5088727;28;20055;-63
2022/01/04 11:44:28;;;;;;;21.38;14.80;;;;;;;10.21;74.70;97665.81;5089657;28;20055;-63
2022/01/04 11:47:11;;;;;;;19.52;13.38;;;;;;;10.20;73.92;97679.94;5090116;28;20048;-63
2022/01/04 11:49:40;;;;;;;22.10;13.48;;;;;;;10.25;76.13;97669.81;5089208;28;20055;-64
2022/01/04 11:52:09;;;;;;;24.17;14.60;;;;;;;10.27;76.38;97674.94;5090026;28;20059;-64
2022/01/04 11:54:36;;;;;;;20.52;13.82;;;;;;;10.29;76.25;97671.22;5090703;28;20638;-64
2022/01/04 11:57:08;;;;;;;25.30;14.35;;;;;;;10.30;75.62;97674.69;5090887;28;20073;-63
2022/01/04 11:59:43;;;;;;;22.58;14.60;;;;;;;10.32;74.72;97661.41;5089248;28;20040;-61
2022/01/04 12:02:32;;;;;;;24.38;14.18;;;;;;;10.33;73.79;97655.16;5090278;28;20108;-63
2022/01/04 12:05:02;;;;;;;23.58;14.05;;;;;;;10.37;75.80;97656.56;5088468;28;20381;-61
2022/01/04 12:07:38;;;;;;;25.17;15.35;;;;;;;10.36;74.36;97654.91;5090783;28;20470;-61
2022/01/04 12:10:20;;;;;;;21.88;13.65;;;;;;;10.36;74.57;97662.78;5090488;28;20501;-62
2022/01/04 12:12:58;;;;;;;20.65;13.93;;;;;;;10.41;74.88;97652.69;5090841;28;20048;-62
2022/01/04 12:15:34;;;;;;;17.88;13.70;;;;;;;10.43;73.56;97663.88;5091074;28;20090;-61
2022/01/04 12:18:07;;;;;;;22.65;13.95;;;;;;;10.46;74.91;97663.63;5090700;28;20048;-62
2022/01/04 12:20:42;;;;;;;19.47;13.90;;;;;;;10.47;73.86;97652.13;5090499;28;20495;-63
2022/01/04 12:23:24;;;;;;;21.75;12.35;;;;;;;10.47;73.74;97640.81;5090637;28;20052;-62
2022/01/04 12:26:03;;;;;;;19.17;12.80;;;;;;;10.48;73.85;97653.81;5090932;28;20667;-61
2022/01/04 12:28:30;;;;;;;19.13;12.65;;;;;;;10.54;75.82;97645.38;5089330;28;20052;-61
2022/01/04 12:31:18;;;;;;;18.98;12.15;;;;;;;10.50;71.94;97657.13;5089708;28;20059;-62
2022/01/04 12:33:55;;;;;;;19.05;12.82;;;;;;;10.51;72.60;97644.81;5089012;28;20055;-61